createdAt,value
2018-07-03T00:00:37.987Z,968.55
2018-07-03T00:01:38.040Z,968.52
2018-07-03T00:02:38.066Z,968.54
2018-07-03T00:03:38.118Z,968.58
2018-07-03T00:04:38.166Z,968.55
2018-07-03T00:05:38.217Z,968.60
2018-07-03T00:06:38.292Z,968.60
2018-07-03T00:07:38.321Z,968.62
2018-07-03T00:08:38.369Z,968.61
2018-07-03T00:09:38.420Z,968.58
2018-07-03T00:10:38.475Z,968.61
2018-07-03T00:11:38.565Z,968.59
2018-07-03T00:12:38.575Z,968.61
2018-07-03T00:13:38.643Z,968.63
2018-07-03T00:14:38.678Z,968.61
2018-07-03T00:15:38.733Z,968.60
2018-07-03T00:16:38.810Z,968.58
2018-07-03T00:17:38.829Z,968.55
2018-07-03T00:18:38.880Z,968.58
2018-07-03T00:19:38.931Z,968.53
2018-07-03T00:20:38.982Z,968.53
2018-07-03T00:21:39.057Z,968.50
2018-07-03T00:22:39.084Z,968.50
2018-07-03T00:23:39.158Z,968.52
2018-07-03T00:24:39.187Z,968.54
2018-07-03T00:25:39.239Z,968.56
2018-07-03T00:26:39.289Z,968.56
2018-07-03T00:27:39.339Z,968.55
2018-07-03T00:28:39.417Z,968.60
2018-07-03T00:29:39.442Z,968.61
2018-07-03T00:30:39.493Z,968.58
2018-07-03T00:31:39.544Z,968.59
2018-07-03T00:32:39.592Z,968.54
2018-07-03T00:33:39.667Z,968.55
2018-07-03T00:34:39.694Z,968.52
2018-07-03T00:35:39.746Z,968.53
2018-07-03T00:36:39.811Z,968.55
2018-07-03T00:37:39.849Z,968.54
2018-07-03T00:38:39.941Z,968.52
2018-07-03T00:39:39.949Z,968.54
2018-07-03T00:40:40.001Z,968.55
2018-07-03T00:41:40.050Z,968.54
2018-07-03T00:42:40.103Z,968.54
2018-07-03T00:43:40.191Z,968.53
2018-07-03T00:44:40.205Z,968.55
2018-07-03T00:45:40.253Z,968.57
2018-07-03T00:46:40.306Z,968.52
2018-07-03T00:47:40.357Z,968.53
2018-07-03T00:48:40.439Z,968.53
2018-07-03T00:49:40.455Z,968.51
2018-07-03T00:50:40.511Z,968.49
2018-07-03T00:51:40.558Z,968.51
2018-07-03T00:52:40.609Z,968.52
2018-07-03T00:53:40.689Z,968.56
2018-07-03T00:54:40.739Z,968.57
2018-07-03T00:55:40.763Z,968.62
2018-07-03T00:56:40.813Z,968.64
2018-07-03T00:57:40.878Z,968.66
2018-07-03T00:58:40.918Z,968.68
2018-07-03T00:59:40.988Z,968.67
2018-07-03T01:00:41.015Z,968.64
2018-07-03T01:01:41.066Z,968.69
2018-07-03T01:02:41.118Z,968.69
2018-07-03T01:03:41.167Z,968.68
2018-07-03T01:04:41.244Z,968.72
2018-07-03T01:05:41.269Z,968.71
2018-07-03T01:06:41.320Z,968.75
2018-07-03T01:07:41.370Z,968.75
2018-07-03T01:08:41.424Z,968.73
2018-07-03T01:09:41.509Z,968.72
2018-07-03T01:10:41.521Z,968.72
2018-07-03T01:11:41.573Z,968.74
2018-07-03T01:12:41.625Z,968.72
2018-07-03T01:13:41.673Z,968.75
2018-07-03T01:14:41.753Z,968.73
2018-07-03T01:15:41.775Z,968.75
2018-07-03T01:16:41.824Z,968.80
2018-07-03T01:17:41.877Z,968.80
2018-07-03T01:18:41.930Z,968.81
2018-07-03T01:19:42.011Z,968.84
2018-07-03T01:20:42.027Z,968.85
2018-07-03T01:21:42.079Z,968.86
2018-07-03T01:22:42.135Z,968.82
2018-07-03T01:23:42.179Z,968.83
2018-07-03T01:24:42.278Z,968.84
2018-07-03T01:25:42.279Z,968.84
2018-07-03T01:26:42.335Z,968.84
2018-07-03T01:27:42.381Z,968.83
2018-07-03T01:28:42.432Z,968.80
2018-07-03T01:29:42.514Z,968.83
2018-07-03T01:30:42.533Z,968.84
2018-07-03T01:31:42.584Z,968.83
2018-07-03T01:32:42.633Z,968.82
2018-07-03T01:33:42.686Z,968.80
2018-07-03T01:34:42.760Z,968.83
2018-07-03T01:35:42.786Z,968.83
2018-07-03T01:36:42.838Z,968.84
2018-07-03T01:37:42.886Z,968.84
2018-07-03T01:38:42.961Z,968.84
2018-07-03T01:39:42.997Z,968.85
2018-07-03T01:40:43.062Z,968.88
2018-07-03T01:41:43.099Z,968.88
2018-07-03T01:42:43.146Z,968.88
2018-07-03T01:43:43.197Z,968.87
2018-07-03T01:44:43.242Z,968.89
2018-07-03T01:45:43.327Z,968.90
2018-07-03T01:46:43.343Z,968.90
2018-07-03T01:47:43.393Z,968.91
2018-07-03T01:48:43.442Z,968.96
2018-07-03T01:49:43.491Z,968.95
2018-07-03T01:50:43.576Z,968.98
2018-07-03T01:51:43.595Z,968.98
2018-07-03T01:52:43.647Z,969.00
2018-07-03T01:53:43.694Z,968.97
2018-07-03T01:54:43.745Z,968.99
2018-07-03T01:55:43.824Z,968.93
2018-07-03T01:56:43.873Z,968.93
2018-07-03T01:57:43.896Z,968.90
2018-07-03T01:58:43.949Z,968.89
2018-07-03T01:59:43.999Z,968.88
2018-07-03T02:00:44.050Z,968.88
2018-07-03T02:01:44.123Z,968.83
2018-07-03T02:02:44.200Z,968.82
2018-07-03T02:03:44.199Z,968.82
2018-07-03T02:04:44.255Z,968.79
2018-07-03T02:05:44.304Z,968.78
2018-07-03T02:06:44.388Z,968.80
2018-07-03T02:07:44.400Z,968.80
2018-07-03T02:08:44.450Z,968.83
2018-07-03T02:09:44.501Z,968.80
2018-07-03T02:10:44.553Z,968.80
2018-07-03T02:11:44.631Z,968.78
2018-07-03T02:12:44.651Z,968.78
2018-07-03T02:13:44.710Z,968.72
2018-07-03T02:14:44.752Z,968.72
2018-07-03T02:15:44.805Z,968.69
2018-07-03T02:16:44.876Z,968.72
2018-07-03T02:17:44.936Z,968.73
2018-07-03T02:18:44.959Z,968.77
2018-07-03T02:19:45.005Z,968.79
2018-07-03T02:20:45.054Z,968.81
2018-07-03T02:21:45.111Z,968.81
2018-07-03T02:22:45.186Z,968.83
2018-07-03T02:23:45.231Z,968.79
2018-07-03T02:24:45.254Z,968.82
2018-07-03T02:25:45.317Z,968.79
2018-07-03T02:26:45.357Z,968.78
2018-07-03T02:27:45.438Z,968.76
2018-07-03T02:28:45.459Z,968.72
2018-07-03T02:29:45.509Z,968.74
2018-07-03T02:30:45.559Z,968.77
2018-07-03T02:31:45.608Z,968.77
2018-07-03T02:32:45.681Z,968.79
2018-07-03T02:33:45.741Z,968.76
2018-07-03T02:34:45.758Z,968.82
2018-07-03T02:35:45.814Z,968.86
2018-07-03T02:36:45.857Z,968.86
2018-07-03T02:37:45.910Z,968.86
2018-07-03T02:38:45.993Z,968.88
2018-07-03T02:39:46.011Z,968.91
2018-07-03T02:40:46.059Z,968.90
2018-07-03T02:41:46.112Z,968.87
2018-07-03T02:42:46.164Z,968.81
2018-07-03T02:43:46.234Z,968.84
2018-07-03T02:44:46.291Z,968.84
2018-07-03T02:45:46.315Z,968.82
2018-07-03T02:46:46.362Z,968.87
2018-07-03T02:47:46.413Z,968.85
2018-07-03T02:48:46.461Z,968.84
2018-07-03T02:49:46.538Z,968.89
2018-07-03T02:50:46.563Z,968.88
2018-07-03T02:51:46.612Z,968.87
2018-07-03T02:52:46.663Z,968.86
2018-07-03T02:53:46.714Z,968.87
2018-07-03T02:54:46.805Z,968.88
2018-07-03T02:55:46.812Z,968.92
2018-07-03T02:56:46.862Z,968.94
2018-07-03T02:57:46.913Z,968.91
2018-07-03T02:58:46.963Z,968.97
2018-07-03T02:59:47.047Z,968.91
2018-07-03T03:00:47.063Z,968.94
2018-07-03T03:01:47.118Z,968.92
2018-07-03T03:02:47.182Z,968.94
2018-07-03T03:03:47.222Z,968.95
2018-07-03T03:04:47.288Z,968.97
2018-07-03T03:05:47.350Z,968.98
2018-07-03T03:06:47.365Z,968.96
2018-07-03T03:07:47.415Z,968.97
2018-07-03T03:08:47.464Z,969.00
2018-07-03T03:09:47.516Z,969.01
2018-07-03T03:10:47.598Z,969.03
2018-07-03T03:11:47.626Z,968.99
2018-07-03T03:12:47.667Z,968.98
2018-07-03T03:13:47.718Z,969.04
2018-07-03T03:14:47.766Z,969.07
2018-07-03T03:15:47.859Z,969.06
2018-07-03T03:16:47.866Z,969.04
2018-07-03T03:17:47.916Z,969.07
2018-07-03T03:18:47.969Z,969.07
2018-07-03T03:19:48.020Z,969.03
2018-07-03T03:20:48.099Z,969.06
2018-07-03T03:21:48.126Z,969.09
2018-07-03T03:22:48.175Z,969.11
2018-07-03T03:23:48.219Z,969.15
2018-07-03T03:24:48.290Z,969.15
2018-07-03T03:25:48.364Z,969.17
2018-07-03T03:26:48.372Z,969.18
2018-07-03T03:27:48.419Z,969.18
2018-07-03T03:28:48.469Z,969.21
2018-07-03T03:29:48.518Z,969.23
2018-07-03T03:30:48.594Z,969.24
2018-07-03T03:31:48.633Z,969.22
2018-07-03T03:32:48.693Z,969.24
2018-07-03T03:33:48.720Z,969.25
2018-07-03T03:34:48.770Z,969.22
2018-07-03T03:35:48.823Z,969.28
2018-07-03T03:36:48.872Z,969.24
2018-07-03T03:37:48.945Z,969.29
2018-07-03T03:38:48.974Z,969.26
2018-07-03T03:39:49.024Z,969.29
2018-07-03T03:40:49.072Z,969.28
2018-07-03T03:41:49.146Z,969.27
2018-07-03T03:42:49.210Z,969.25
2018-07-03T03:43:49.224Z,969.25
2018-07-03T03:44:49.274Z,969.28
2018-07-03T03:45:49.323Z,969.24
2018-07-03T03:46:49.374Z,969.27
2018-07-03T03:47:49.454Z,969.25
2018-07-03T03:48:49.473Z,969.25
2018-07-03T03:49:49.528Z,969.27
2018-07-03T03:50:49.574Z,969.28
2018-07-03T03:51:49.624Z,969.29
2018-07-03T03:52:49.717Z,969.32
2018-07-03T03:53:49.751Z,969.31
2018-07-03T03:54:49.775Z,969.31
2018-07-03T03:55:49.825Z,969.34
2018-07-03T03:56:49.873Z,969.31
2018-07-03T03:57:49.948Z,969.31
2018-07-03T03:58:50.024Z,969.29
2018-07-03T03:59:50.027Z,969.28
2018-07-03T04:00:50.112Z,969.24
2018-07-03T04:01:50.125Z,969.24
2018-07-03T04:02:50.177Z,969.25
2018-07-03T04:03:50.262Z,969.23
2018-07-03T04:04:50.275Z,969.24
2018-07-03T04:05:50.325Z,969.24
2018-07-03T04:06:50.411Z,969.21
2018-07-03T04:07:50.426Z,969.25
2018-07-03T04:08:50.501Z,969.21
2018-07-03T04:09:50.553Z,969.19
2018-07-03T04:10:50.576Z,969.20
2018-07-03T04:11:50.627Z,969.23
2018-07-03T04:12:50.678Z,969.23
2018-07-03T04:13:50.726Z,969.23
2018-07-03T04:14:50.801Z,969.19
2018-07-03T04:15:50.828Z,969.16
2018-07-03T04:16:50.878Z,969.18
2018-07-03T04:17:50.925Z,969.15
2018-07-03T04:18:50.976Z,969.12
2018-07-03T04:19:51.065Z,969.14
2018-07-03T04:20:51.077Z,969.16
2018-07-03T04:21:51.127Z,969.17
2018-07-03T04:22:51.179Z,969.16
2018-07-03T04:23:51.227Z,969.16
2018-07-03T04:24:51.312Z,969.18
2018-07-03T04:25:51.328Z,969.20
2018-07-03T04:26:51.378Z,969.21
2018-07-03T04:27:51.429Z,969.17
2018-07-03T04:28:51.480Z,969.17
2018-07-03T04:29:51.557Z,969.20
2018-07-03T04:30:51.620Z,969.20
2018-07-03T04:31:51.629Z,969.20
2018-07-03T04:32:51.678Z,969.19
2018-07-03T04:33:51.730Z,969.19
2018-07-03T04:34:51.785Z,969.21
2018-07-03T04:35:51.861Z,969.28
2018-07-03T04:36:51.878Z,969.29
2018-07-03T04:37:51.930Z,969.25
2018-07-03T04:38:51.981Z,969.28
2018-07-03T04:39:52.031Z,969.28
2018-07-03T04:40:52.111Z,969.26
2018-07-03T04:41:52.131Z,969.28
2018-07-03T04:42:52.181Z,969.29
2018-07-03T04:43:52.232Z,969.29
2018-07-03T04:44:52.287Z,969.30
2018-07-03T04:45:52.356Z,969.28
2018-07-03T04:46:52.397Z,969.31
2018-07-03T04:47:52.456Z,969.33
2018-07-03T04:48:52.480Z,969.31
2018-07-03T04:49:52.534Z,969.31
2018-07-03T04:50:52.584Z,969.26
2018-07-03T04:51:52.633Z,969.23
2018-07-03T04:52:52.714Z,969.19
2018-07-03T04:53:52.735Z,969.22
2018-07-03T04:54:52.784Z,969.26
2018-07-03T04:55:52.837Z,969.27
2018-07-03T04:56:52.884Z,969.26
2018-07-03T04:57:52.960Z,969.27
2018-07-03T04:58:52.983Z,969.30
2018-07-03T04:59:53.035Z,969.35
2018-07-03T05:00:53.087Z,969.36
2018-07-03T05:01:53.133Z,969.30
2018-07-03T05:02:53.219Z,969.29
2018-07-03T05:03:53.241Z,969.24
2018-07-03T05:04:53.284Z,969.23
2018-07-03T05:05:53.343Z,969.17
2018-07-03T05:06:53.385Z,969.22
2018-07-03T05:07:53.463Z,969.22
2018-07-03T05:08:53.513Z,969.20
2018-07-03T05:09:53.538Z,969.23
2018-07-03T05:10:53.587Z,969.26
2018-07-03T05:11:53.640Z,969.22
2018-07-03T05:12:53.688Z,969.23
2018-07-03T05:13:53.771Z,969.27
2018-07-03T05:14:53.791Z,969.27
2018-07-03T05:15:53.845Z,969.23
2018-07-03T05:16:53.890Z,969.24
2018-07-03T05:17:53.944Z,969.29
2018-07-03T05:18:54.024Z,969.25
2018-07-03T05:19:54.045Z,969.30
2018-07-03T05:20:54.094Z,969.34
2018-07-03T05:21:54.145Z,969.34
2018-07-03T05:22:54.194Z,969.33
2018-07-03T05:23:54.287Z,969.31
2018-07-03T05:24:54.301Z,969.27
2018-07-03T05:25:54.345Z,969.35
2018-07-03T05:26:54.396Z,969.33
2018-07-03T05:27:54.448Z,969.38
2018-07-03T05:28:54.532Z,969.43
2018-07-03T05:29:54.549Z,969.35
2018-07-03T05:30:54.600Z,969.32
2018-07-03T05:31:54.652Z,969.39
2018-07-03T05:32:54.700Z,969.36
2018-07-03T05:33:54.777Z,969.40
2018-07-03T05:34:54.811Z,969.43
2018-07-03T05:35:54.916Z,969.44
2018-07-03T05:36:54.903Z,969.48
2018-07-03T05:37:54.957Z,969.44
2018-07-03T05:38:55.010Z,969.50
2018-07-03T05:39:55.237Z,969.47
2018-07-03T05:40:55.145Z,969.49
2018-07-03T05:41:55.161Z,969.51
2018-07-03T05:42:55.241Z,969.52
2018-07-03T05:43:55.261Z,969.48
2018-07-03T05:44:55.313Z,969.52
2018-07-03T05:45:55.398Z,969.54
2018-07-03T05:46:55.424Z,969.53
2018-07-03T05:47:55.468Z,969.59
2018-07-03T05:48:55.517Z,969.56
2018-07-03T05:49:55.568Z,969.62
2018-07-03T05:50:55.652Z,969.61
2018-07-03T05:51:55.715Z,969.69
2018-07-03T05:52:55.726Z,969.72
2018-07-03T05:53:55.776Z,969.75
2018-07-03T05:54:55.827Z,969.72
2018-07-03T05:55:55.901Z,969.68
2018-07-03T05:56:55.934Z,969.67
2018-07-03T05:57:55.979Z,969.67
2018-07-03T05:58:56.030Z,969.68
2018-07-03T05:59:56.084Z,969.70
2018-07-03T06:00:56.160Z,969.73
2018-07-03T06:01:56.209Z,969.75
2018-07-03T06:02:56.234Z,969.77
2018-07-03T06:03:56.303Z,969.76
2018-07-03T06:04:56.337Z,969.76
2018-07-03T06:05:56.389Z,969.76
2018-07-03T06:06:56.481Z,969.74
2018-07-03T06:07:56.495Z,969.75
2018-07-03T06:08:56.545Z,969.76
2018-07-03T06:09:56.597Z,969.79
2018-07-03T06:10:56.651Z,969.80
2018-07-03T06:11:56.729Z,969.84
2018-07-03T06:12:56.787Z,969.84
2018-07-03T06:13:56.801Z,969.87
2018-07-03T06:14:56.892Z,969.90
2018-07-03T06:15:56.899Z,969.88
2018-07-03T06:16:56.981Z,969.85
2018-07-03T06:17:57.004Z,969.87
2018-07-03T06:18:57.055Z,969.83
2018-07-03T06:19:57.112Z,969.84
2018-07-03T06:20:58.227Z,969.84
2018-07-03T06:21:57.323Z,969.86
2018-07-03T06:22:57.283Z,969.89
2018-07-03T06:23:57.309Z,969.90
2018-07-03T06:24:57.362Z,969.90
2018-07-03T06:25:57.415Z,969.91
2018-07-03T06:26:57.464Z,969.89
2018-07-03T06:27:57.568Z,969.90
2018-07-03T06:28:57.632Z,969.89
2018-07-03T06:29:57.637Z,969.91
2018-07-03T06:30:57.676Z,969.91
2018-07-03T06:31:57.719Z,969.89
2018-07-03T06:32:57.784Z,969.89
2018-07-03T06:33:57.852Z,969.89
2018-07-03T06:34:57.869Z,969.89
2018-07-03T06:35:57.921Z,969.87
2018-07-03T06:36:57.972Z,969.88
2018-07-03T06:37:58.048Z,969.89
2018-07-03T06:38:58.116Z,969.88
2018-07-03T06:39:58.126Z,969.89
2018-07-03T06:40:58.179Z,969.91
2018-07-03T06:41:58.244Z,969.89
2018-07-03T06:42:58.318Z,969.97
2018-07-03T06:43:58.331Z,969.97
2018-07-03T06:44:58.440Z,970.03
2018-07-03T06:45:58.435Z,970.03
2018-07-03T06:46:58.486Z,970.08
2018-07-03T06:47:58.561Z,969.99
2018-07-03T06:48:58.590Z,970.01
2018-07-03T06:49:58.793Z,970.02
2018-07-03T06:50:58.692Z,970.00
2018-07-03T06:51:58.745Z,969.98
2018-07-03T06:52:58.793Z,969.99
2018-07-03T06:53:58.893Z,969.95
2018-07-03T06:54:58.898Z,969.99
2018-07-03T06:55:58.957Z,969.98
2018-07-03T06:56:59.002Z,970.00
2018-07-03T06:57:59.153Z,970.01
2018-07-03T06:58:59.137Z,970.00
2018-07-03T06:59:59.159Z,970.01
2018-07-03T07:00:59.210Z,969.97
2018-07-03T07:01:59.264Z,969.98
2018-07-03T07:02:59.327Z,969.97
2018-07-03T07:03:59.396Z,969.97
2018-07-03T07:04:59.418Z,969.97
2018-07-03T07:05:59.470Z,969.98
2018-07-03T07:06:59.523Z,969.97
2018-07-03T07:07:59.576Z,970.07
2018-07-03T07:08:59.680Z,970.10
2018-07-03T07:09:59.680Z,970.14
2018-07-03T07:10:59.769Z,970.15
2018-07-03T07:11:59.788Z,970.20
2018-07-03T07:12:59.839Z,970.19
2018-07-03T07:13:59.890Z,970.20
2018-07-03T07:14:59.966Z,970.19
2018-07-03T07:16:00.036Z,970.15
2018-07-03T07:17:00.049Z,970.11
2018-07-03T07:18:00.101Z,970.07
2018-07-03T07:19:00.158Z,970.08
2018-07-03T07:20:00.210Z,970.03
2018-07-03T07:21:00.284Z,970.05
2018-07-03T07:22:00.337Z,970.10
2018-07-03T07:23:00.370Z,970.11
2018-07-03T07:24:00.421Z,970.10
2018-07-03T07:25:00.473Z,970.12
2018-07-03T07:26:00.526Z,970.09
2018-07-03T07:27:00.602Z,970.09
2018-07-03T07:28:00.631Z,970.05
2018-07-03T07:29:00.684Z,970.05
2018-07-03T07:30:00.748Z,970.09
2018-07-03T07:31:00.791Z,970.13
2018-07-03T07:32:00.891Z,970.16
2018-07-03T07:33:00.898Z,970.17
2018-07-03T07:34:00.954Z,970.23
2018-07-03T07:35:01.002Z,970.24
2018-07-03T07:36:01.073Z,970.31
2018-07-03T07:37:01.138Z,970.37
2018-07-03T07:38:01.164Z,970.39
2018-07-03T07:39:01.216Z,970.38
2018-07-03T07:40:01.268Z,970.42
2018-07-03T07:41:01.321Z,970.48
2018-07-03T07:42:01.399Z,970.52
2018-07-03T07:43:01.463Z,970.64
2018-07-03T07:44:01.477Z,970.70
2018-07-03T07:45:01.534Z,970.75
2018-07-03T07:46:01.585Z,970.78
2018-07-03T07:47:01.643Z,970.83
2018-07-03T07:48:01.734Z,970.95
2018-07-03T07:49:01.744Z,971.02
2018-07-03T07:50:01.795Z,971.00
2018-07-03T07:51:01.875Z,971.07
2018-07-03T07:52:01.902Z,971.21
2018-07-03T07:53:01.972Z,971.26
2018-07-03T07:54:02.004Z,971.31
2018-07-03T07:55:02.056Z,971.40
2018-07-03T07:56:02.106Z,971.46
2018-07-03T07:57:02.165Z,971.51
2018-07-03T07:58:02.243Z,971.50
2018-07-03T07:59:02.262Z,971.56
2018-07-03T08:00:02.312Z,971.55
2018-07-03T08:01:02.367Z,971.64
2018-07-03T08:02:02.412Z,971.63
2018-07-03T08:03:02.488Z,971.60
2018-07-03T08:04:02.514Z,971.63
2018-07-03T08:05:02.587Z,971.64
2018-07-03T08:06:02.619Z,971.68
2018-07-03T08:07:02.666Z,971.76
2018-07-03T08:08:02.718Z,971.80
2018-07-03T08:09:02.790Z,971.90
2018-07-03T08:10:02.846Z,971.92
2018-07-03T08:11:02.869Z,971.99
2018-07-03T08:12:02.925Z,972.08
2018-07-03T08:13:02.967Z,972.11
2018-07-03T08:14:03.020Z,972.15
2018-07-03T08:15:03.097Z,972.14
2018-07-03T08:16:03.124Z,972.24
2018-07-03T08:17:03.170Z,972.23
2018-07-03T08:18:03.227Z,972.24
2018-07-03T08:19:03.274Z,972.21
2018-07-03T08:20:03.345Z,972.25
2018-07-03T08:21:03.368Z,972.23
2018-07-03T08:22:03.426Z,972.18
2018-07-03T08:23:03.473Z,972.20
2018-07-03T08:24:03.523Z,972.18
2018-07-03T08:25:03.602Z,972.27
2018-07-03T08:26:03.646Z,972.20
2018-07-03T08:27:03.675Z,972.20
2018-07-03T08:28:03.720Z,972.26
2018-07-03T08:29:03.768Z,972.23
2018-07-03T08:30:03.819Z,972.24
2018-07-03T08:31:03.920Z,972.26
2018-07-03T08:32:03.920Z,972.29
2018-07-03T08:33:03.969Z,972.30
2018-07-03T08:34:04.033Z,972.28
2018-07-03T08:35:04.066Z,972.31
2018-07-03T08:36:04.160Z,972.32
2018-07-03T08:37:04.169Z,972.36
2018-07-03T08:38:04.218Z,972.37
2018-07-03T08:39:04.269Z,972.36
2018-07-03T08:40:04.320Z,972.30
2018-07-03T08:41:04.414Z,972.32
2018-07-03T08:42:04.448Z,972.30
2018-07-03T08:43:04.468Z,972.32
2018-07-03T08:44:04.517Z,972.32
2018-07-03T08:45:04.569Z,972.37
2018-07-03T08:46:04.646Z,972.34
2018-07-03T08:47:04.667Z,972.36
2018-07-03T08:48:04.717Z,972.38
2018-07-03T08:49:04.765Z,972.38
2018-07-03T08:50:04.815Z,972.40
2018-07-03T08:51:04.895Z,972.50
2018-07-03T08:52:04.919Z,972.50
2018-07-03T08:53:04.999Z,972.57
2018-07-03T08:54:05.016Z,972.62
2018-07-03T08:55:05.103Z,972.62
2018-07-03T08:56:05.116Z,972.63
2018-07-03T08:57:05.197Z,972.65
2018-07-03T08:58:05.231Z,972.61
2018-07-03T08:59:05.263Z,972.64
2018-07-03T09:00:05.317Z,972.65
2018-07-03T09:01:05.362Z,972.66
2018-07-03T09:02:05.439Z,972.69
2018-07-03T09:03:05.491Z,972.72
2018-07-03T09:04:05.517Z,972.65
2018-07-03T09:05:05.562Z,972.70
2018-07-03T09:06:05.617Z,972.70
2018-07-03T09:07:05.692Z,972.68
2018-07-03T09:08:05.714Z,972.75
2018-07-03T09:09:05.763Z,972.82
2018-07-03T09:10:05.839Z,972.81
2018-07-03T09:11:05.864Z,972.84
2018-07-03T09:12:05.947Z,972.90
2018-07-03T09:13:05.963Z,972.92
2018-07-03T09:14:06.013Z,972.95
2018-07-03T09:15:06.063Z,972.92
2018-07-03T09:16:06.112Z,972.92
2018-07-03T09:17:06.201Z,972.92
2018-07-03T09:18:06.245Z,972.90
2018-07-03T09:19:06.275Z,972.93
2018-07-03T09:20:06.311Z,972.91
2018-07-03T09:21:06.362Z,972.91
2018-07-03T09:22:06.434Z,972.92
2018-07-03T09:23:06.460Z,972.91
2018-07-03T09:24:06.512Z,972.99
2018-07-03T09:25:06.561Z,972.91
2018-07-03T09:26:06.644Z,972.88
2018-07-03T09:27:06.663Z,972.87
2018-07-03T09:28:06.713Z,972.81
2018-07-03T09:29:06.763Z,972.83
2018-07-03T09:30:06.817Z,972.85
2018-07-03T09:31:06.887Z,972.89
2018-07-03T09:32:06.914Z,972.82
2018-07-03T09:33:06.986Z,972.86
2018-07-03T09:34:07.011Z,972.81
2018-07-03T09:35:07.063Z,972.81
2018-07-03T09:36:07.117Z,972.82
2018-07-03T09:37:07.183Z,972.79
2018-07-03T09:38:07.218Z,972.81
2018-07-03T09:39:07.261Z,972.83
2018-07-03T09:40:07.315Z,972.81
2018-07-03T09:41:07.360Z,972.86
2018-07-03T09:42:07.436Z,972.85
2018-07-03T09:43:07.462Z,972.87
2018-07-03T09:44:07.511Z,972.88
2018-07-03T09:45:07.560Z,972.92
2018-07-03T09:46:07.610Z,972.85
2018-07-03T09:47:07.691Z,972.90
2018-07-03T09:48:07.719Z,972.90
2018-07-03T09:49:07.783Z,972.92
2018-07-03T09:50:07.815Z,972.91
2018-07-03T09:51:07.861Z,972.91
2018-07-03T09:52:07.910Z,972.89
2018-07-03T09:53:07.964Z,972.89
2018-07-03T09:54:08.047Z,972.92
2018-07-03T09:55:08.063Z,972.91
2018-07-03T09:56:08.110Z,972.97
2018-07-03T09:57:08.161Z,972.99
2018-07-03T09:58:08.217Z,973.01
2018-07-03T09:59:08.292Z,973.03
2018-07-03T10:00:08.309Z,973.08
2018-07-03T10:01:08.362Z,973.11
2018-07-03T10:02:08.409Z,973.08
2018-07-03T10:03:08.458Z,973.12
2018-07-03T10:04:08.531Z,973.12
2018-07-03T10:05:08.615Z,973.19
2018-07-03T10:06:08.611Z,973.16
2018-07-03T10:07:08.660Z,973.17
2018-07-03T10:08:08.710Z,973.17
2018-07-03T10:09:08.758Z,973.17
2018-07-03T10:10:08.847Z,973.20
2018-07-03T10:11:08.859Z,973.18
2018-07-03T10:12:08.911Z,973.16
2018-07-03T10:13:08.957Z,973.19
2018-07-03T10:14:09.011Z,973.20
2018-07-03T10:15:09.082Z,973.19
2018-07-03T10:16:09.140Z,973.19
2018-07-03T10:17:09.158Z,973.22
2018-07-03T10:18:09.210Z,973.21
2018-07-03T10:19:09.261Z,973.23
2018-07-03T10:20:09.349Z,973.20
2018-07-03T10:21:09.358Z,973.20
2018-07-03T10:22:09.411Z,973.21
2018-07-03T10:23:09.459Z,973.19
2018-07-03T10:24:09.510Z,973.18
2018-07-03T10:25:09.583Z,973.25
2018-07-03T10:26:09.636Z,973.23
2018-07-03T10:27:10.594Z,973.26
2018-07-03T10:28:09.708Z,973.22
2018-07-03T10:29:09.757Z,973.25
2018-07-03T10:30:09.812Z,973.23
2018-07-03T10:31:09.888Z,973.27
2018-07-03T10:32:09.937Z,973.19
2018-07-03T10:33:09.958Z,973.20
2018-07-03T10:34:10.008Z,973.19
2018-07-03T10:35:10.058Z,973.18
2018-07-03T10:36:10.131Z,973.13
2018-07-03T10:37:10.181Z,973.17
2018-07-03T10:38:10.210Z,973.14
2018-07-03T10:39:10.262Z,973.15
2018-07-03T10:40:10.313Z,973.16
2018-07-03T10:41:10.462Z,973.17
2018-07-03T10:42:10.412Z,973.20
2018-07-03T10:43:10.458Z,973.22
2018-07-03T10:44:10.508Z,973.17
2018-07-03T10:45:10.558Z,973.23
2018-07-03T10:46:10.636Z,973.24
2018-07-03T10:47:10.690Z,973.27
2018-07-03T10:48:10.712Z,973.22
2018-07-03T10:49:10.759Z,973.18
2018-07-03T10:50:10.811Z,973.16
2018-07-03T10:51:10.859Z,973.16
2018-07-03T10:52:10.938Z,973.10
2018-07-03T10:53:10.966Z,973.10
2018-07-03T10:54:11.049Z,973.10
2018-07-03T10:55:11.058Z,973.10
2018-07-03T10:56:11.112Z,973.10
2018-07-03T10:57:11.185Z,973.07
2018-07-03T10:58:11.233Z,973.07
2018-07-03T10:59:11.266Z,973.06
2018-07-03T11:00:11.312Z,973.05
2018-07-03T11:01:11.363Z,973.07
2018-07-03T11:02:11.424Z,973.09
2018-07-03T11:03:11.497Z,973.07
2018-07-03T11:04:11.510Z,973.05
2018-07-03T11:05:11.560Z,973.04
2018-07-03T11:06:11.617Z,973.03
2018-07-03T11:07:11.679Z,972.98
2018-07-03T11:08:11.742Z,972.95
2018-07-03T11:09:11.763Z,972.93
2018-07-03T11:10:11.815Z,972.93
2018-07-03T11:11:11.863Z,972.97
2018-07-03T11:12:11.916Z,972.96
2018-07-03T11:13:11.988Z,972.97
2018-07-03T11:14:12.015Z,972.96
2018-07-03T11:15:12.074Z,973.00
2018-07-03T11:16:12.115Z,972.93
2018-07-03T11:17:12.167Z,972.91
2018-07-03T11:18:12.250Z,972.92
2018-07-03T11:19:12.267Z,972.90
2018-07-03T11:20:12.382Z,972.84
2018-07-03T11:21:12.368Z,972.77
2018-07-03T11:22:12.419Z,972.78
2018-07-03T11:23:12.496Z,972.72
2018-07-03T11:24:12.520Z,972.74
2018-07-03T11:25:12.570Z,972.73
2018-07-03T11:26:12.624Z,972.72
2018-07-03T11:27:12.700Z,972.74
2018-07-03T11:28:12.725Z,972.78
2018-07-03T11:29:12.777Z,972.75
2018-07-03T11:30:12.831Z,972.74
2018-07-03T11:31:12.879Z,972.78
2018-07-03T11:32:12.950Z,972.79
2018-07-03T11:33:12.985Z,972.76
2018-07-03T11:34:13.030Z,972.74
2018-07-03T11:35:13.077Z,972.79
2018-07-03T11:36:13.128Z,972.80
2018-07-03T11:37:13.213Z,972.78
2018-07-03T11:38:13.235Z,972.80
2018-07-03T11:39:13.283Z,972.80
2018-07-03T11:40:13.350Z,972.80
2018-07-03T11:41:13.381Z,972.78
2018-07-03T11:42:13.467Z,972.80
2018-07-03T11:43:13.488Z,972.79
2018-07-03T11:44:13.538Z,972.77
2018-07-03T11:45:13.588Z,972.75
2018-07-03T11:46:13.636Z,972.71
2018-07-03T11:47:13.714Z,972.66
2018-07-03T11:48:13.762Z,972.69
2018-07-03T11:49:13.792Z,972.64
2018-07-03T11:50:13.840Z,972.63
2018-07-03T11:51:13.893Z,972.61
2018-07-03T11:52:13.942Z,972.61
2018-07-03T11:53:14.044Z,972.57
2018-07-03T11:54:14.045Z,972.62
2018-07-03T11:55:14.094Z,972.58
2018-07-03T11:56:14.148Z,972.61
2018-07-03T11:57:14.196Z,972.62
2018-07-03T11:58:14.281Z,972.62
2018-07-03T11:59:14.300Z,972.62
2018-07-03T12:00:14.350Z,972.60
2018-07-03T12:01:14.405Z,972.59
2018-07-03T12:02:14.452Z,972.62
2018-07-03T12:03:14.545Z,972.62
2018-07-03T12:04:14.557Z,972.59
2018-07-03T12:05:14.609Z,972.55
2018-07-03T12:06:14.662Z,972.59
2018-07-03T12:07:14.709Z,972.59
2018-07-03T12:08:14.802Z,972.52
2018-07-03T12:09:14.816Z,972.50
2018-07-03T12:10:14.865Z,972.51
2018-07-03T12:11:14.934Z,972.52
2018-07-03T12:12:14.969Z,972.57
2018-07-03T12:13:15.053Z,972.54
2018-07-03T12:14:15.075Z,972.52
2018-07-03T12:15:15.130Z,972.52
2018-07-03T12:16:15.183Z,972.52
2018-07-03T12:17:15.233Z,972.53
2018-07-03T12:18:15.330Z,972.50
2018-07-03T12:19:15.350Z,972.47
2018-07-03T12:20:15.394Z,972.46
2018-07-03T12:21:15.447Z,972.44
2018-07-03T12:22:15.501Z,972.42
2018-07-03T12:23:15.579Z,972.33
2018-07-03T12:24:15.608Z,972.31
2018-07-03T12:25:15.688Z,972.31
2018-07-03T12:26:15.721Z,972.31
2018-07-03T12:27:15.774Z,972.31
2018-07-03T12:28:15.830Z,972.30
2018-07-03T12:29:15.975Z,972.29